SCOP weather

Public forecast

Using degrees Celsius for public forecast. Weather courtesy of forecast.io.

Closest aviation weather report (METAR) to Pilauco Airport

Closest report is Cañal Bajo Carlos - Hott Siebert Airport, 4.0 nm (7.5 km) SE. Retrieved 2020/08/13 08:00 UTC (39 minutes ago):

SCJO 130800Z AUTO 35006KT 9999 BKN027/// BKN034/// OVC100/// 08/07 Q1014

Closest aviation forecast (TAF) to Pilauco Airport

Forecast is more than 12 hours old.

Closest forecast is Cañal Bajo Carlos - Hott Siebert Airport, 4.0 nm (7.5 km) SE. Retrieved 2020/08/12 12:33 UTC (20 hours ago):

TAF SCJO 121054Z 1212/1224 VRB03KT 2000 BR BKN005 TN05/1212Z TX10/1218Z BECMG 1214/1216 9999 NSW BKN030 BECMG 1221/1222 8000 -SHRA